PWSweather.com
Personal Weather Stations
Station Observations
RIORANCHO
Corrales Heights, Rio Rancho, NM 87124

Corrales HeightsRio Rancho, NM 87124

Lat: 35.241928, Lon: -106.647095

Elevation: 5297

Station Type: Davis Vantage Pro 2 Plus

http://www.weatherriorancho.com

High Low Average
Temperature 59.0°F15.0°C 37.0°F2.8°C 50.8°F10.4°C
Dew Point 40.2°F4.6°C 24.5°F-4.2°C 33.7°F0.9°C
Winds 19.6 mph 31.5 kmh Calm Calm 8.0 mph S12.9 kmh S
Wind Gusts 34.5 mph55.5 kmh -- 14.0 mph22.5 kmh
Humidity 78% 34% 54%
Pressure 29.79 in1008.8 mb 29.57 in1001.4 mb -
Precipitation 0.01 in0.3 mm - -
Hour Temp Dew Point Humidity Winds Wind Gusts Pressure Precip Precip Rate Daily Precip Total
12:00 AM 49.1°F9.5°C 34.1°F1.2°C 56% 2.3 mph SSW3.7 kmh SSW 4.6 mph7.4 kmh 29.80 in1009.1 mb - 0.00 in0.0 mm 0.00 in0.0 mm
12:10 AM 49.2°F9.6°C 34.2°F1.2°C 56% 2.3 mph SSW3.7 kmh SSW 4.6 mph7.4 kmh 29.80 in1009.1 mb - 0.00 in0.0 mm 0.00 in0.0 mm
12:20 AM 49.1°F9.5°C 34.0°F1.1°C 56% 3.5 mph SSW5.6 kmh SSW 6.9 mph11.1 kmh 29.80 in1009.1 mb - 0.00 in0.0 mm 0.00 in0.0 mm
12:30 AM 49.4°F9.7°C 34.3°F1.3°C 56% 3.5 mph S5.6 kmh S 5.8 mph9.3 kmh 29.80 in1009.1 mb - 0.00 in0.0 mm 0.00 in0.0 mm
12:40 AM 49.7°F9.8°C 34.2°F1.2°C 55% 1.2 mph S1.9 kmh S 4.6 mph7.4 kmh 29.80 in1009.1 mb - 0.00 in0.0 mm 0.00 in0.0 mm
12:50 AM 49.5°F9.7°C 34.4°F1.3°C 56% 2.3 mph SSW3.7 kmh SSW 3.5 mph5.6 kmh 29.80 in1009.1 mb - 0.00 in0.0 mm 0.00 in0.0 mm
01:00 AM 49.1°F9.5°C 34.1°F1.2°C 56% Calm Calm 1.2 mph1.9 kmh 29.79 in1008.8 mb - 0.00 in0.0 mm 0.00 in0.0 mm
01:10 AM 48.4°F9.1°C 33.9°F1.1°C 57% Calm Calm -- 29.79 in1008.8 mb - 0.00 in0.0 mm 0.00 in0.0 mm
01:20 AM 47.8°F8.8°C 34.1°F1.2°C 59% Calm Calm -- 29.79 in1008.8 mb - 0.00 in0.0 mm 0.00 in0.0 mm
01:30 AM 47.2°F8.4°C 33.6°F0.9°C 59% Calm Calm -- 29.79 in1008.8 mb - 0.00 in0.0 mm 0.00 in0.0 mm
01:40 AM 46.6°F8.1°C 33.8°F1.0°C 61% Calm Calm -- 29.79 in1008.8 mb - 0.00 in0.0 mm 0.00 in0.0 mm
01:50 AM 46.1°F7.8°C 33.8°F1.0°C 62% Calm Calm -- 29.79 in1008.8 mb - 0.00 in0.0 mm 0.00 in0.0 mm
02:00 AM 45.8°F7.7°C 33.5°F0.8°C 62% Calm Calm -- 29.79 in1008.8 mb - 0.00 in0.0 mm 0.00 in0.0 mm
02:10 AM 45.6°F7.6°C 33.7°F0.9°C 63% Calm Calm -- 29.79 in1008.8 mb - 0.00 in0.0 mm 0.00 in0.0 mm
02:20 AM 45.5°F7.5°C 34.0°F1.1°C 64% Calm Calm -- 29.79 in1008.8 mb - 0.00 in0.0 mm 0.00 in0.0 mm
02:30 AM 45.4°F7.4°C 34.3°F1.3°C 65% Calm Calm -- 29.79 in1008.8 mb - 0.00 in0.0 mm 0.00 in0.0 mm
02:40 AM 45.2°F7.3°C 34.1°F1.2°C 65% Calm Calm -- 29.79 in1008.8 mb - 0.00 in0.0 mm 0.00 in0.0 mm
02:50 AM 44.9°F7.2°C 34.2°F1.2°C 66% Calm Calm -- 29.79 in1008.8 mb - 0.00 in0.0 mm 0.00 in0.0 mm
03:00 AM 44.7°F7.1°C 34.4°F1.3°C 67% Calm Calm -- 29.79 in1008.8 mb - 0.00 in0.0 mm 0.00 in0.0 mm
03:10 AM 44.7°F7.1°C 35.2°F1.8°C 69% Calm Calm -- 29.79 in1008.8 mb - 0.00 in0.0 mm 0.00 in0.0 mm
03:20 AM 45.4°F7.4°C 36.2°F2.3°C 70% Calm Calm 1.2 mph1.9 kmh 29.79 in1008.8 mb - 0.00 in0.0 mm 0.00 in0.0 mm
03:30 AM 46.3°F7.9°C 37.1°F2.8°C 70% Calm Calm -- 29.78 in1008.5 mb - 0.00 in0.0 mm 0.00 in0.0 mm
03:40 AM 46.8°F8.2°C 37.2°F2.9°C 69% Calm Calm -- 29.78 in1008.5 mb - 0.00 in0.0 mm 0.00 in0.0 mm
03:50 AM 46.9°F8.3°C 36.9°F2.7°C 68% Calm Calm -- 29.78 in1008.5 mb - 0.00 in0.0 mm 0.00 in0.0 mm
04:00 AM 47.1°F8.4°C 37.0°F2.8°C 68% Calm Calm -- 29.77 in1008.1 mb - 0.00 in0.0 mm 0.00 in0.0 mm
04:10 AM 46.8°F8.2°C 36.8°F2.7°C 68% Calm Calm -- 29.77 in1008.1 mb - 0.00 in0.0 mm 0.00 in0.0 mm
04:20 AM 46.4°F8.0°C 36.8°F2.7°C 69% Calm Calm -- 29.77 in1008.1 mb - 0.00 in0.0 mm 0.00 in0.0 mm
04:30 AM 46.1°F7.8°C 36.5°F2.5°C 69% Calm Calm -- 29.76 in1007.8 mb - 0.00 in0.0 mm 0.00 in0.0 mm
04:40 AM 46.0°F7.8°C 36.7°F2.6°C 70% Calm Calm -- 29.76 in1007.8 mb - 0.00 in0.0 mm 0.00 in0.0 mm
04:50 AM 46.2°F7.9°C 37.0°F2.8°C 70% Calm Calm -- 29.76 in1007.8 mb - 0.00 in0.0 mm 0.00 in0.0 mm
05:00 AM 46.4°F8.0°C 36.7°F2.6°C 69% Calm Calm 3.5 mph5.6 kmh 29.75 in1007.5 mb - 0.00 in0.0 mm 0.00 in0.0 mm
05:10 AM 46.8°F8.2°C 36.8°F2.7°C 68% 1.2 mph S1.9 kmh S 3.5 mph5.6 kmh 29.75 in1007.5 mb - 0.00 in0.0 mm 0.00 in0.0 mm
05:20 AM 46.9°F8.3°C 36.5°F2.5°C 67% 2.3 mph S3.7 kmh S 2.3 mph3.7 kmh 29.75 in1007.5 mb - 0.00 in0.0 mm 0.00 in0.0 mm
05:30 AM 46.9°F8.3°C 36.5°F2.5°C 67% 1.2 mph S1.9 kmh S 1.2 mph1.9 kmh 29.75 in1007.5 mb - 0.00 in0.0 mm 0.00 in0.0 mm
05:40 AM 46.2°F7.9°C 36.2°F2.3°C 68% Calm Calm 2.3 mph3.7 kmh 29.75 in1007.5 mb - 0.00 in0.0 mm 0.00 in0.0 mm
05:50 AM 45.6°F7.6°C 36.0°F2.2°C 69% Calm Calm 2.3 mph3.7 kmh 29.75 in1007.5 mb - 0.00 in0.0 mm 0.00 in0.0 mm
06:00 AM 45.2°F7.3°C 35.6°F2.0°C 69% 1.2 mph S1.9 kmh S 4.6 mph7.4 kmh 29.75 in1007.5 mb - 0.00 in0.0 mm 0.00 in0.0 mm
06:10 AM 45.6°F7.6°C 36.0°F2.2°C 69% 3.5 mph S5.6 kmh S 4.6 mph7.4 kmh 29.75 in1007.5 mb - 0.00 in0.0 mm 0.00 in0.0 mm
06:20 AM 45.8°F7.7°C 35.5°F1.9°C 67% 2.3 mph S3.7 kmh S 8.1 mph13.0 kmh 29.75 in1007.5 mb - 0.00 in0.0 mm 0.00 in0.0 mm
06:30 AM 45.5°F7.5°C 35.2°F1.8°C 67% 4.6 mph SSE7.4 kmh SSE 8.1 mph13.0 kmh 29.75 in1007.5 mb - 0.00 in0.0 mm 0.00 in0.0 mm
06:40 AM 44.9°F7.2°C 35.0°F1.7°C 68% 2.3 mph S3.7 kmh S 9.2 mph14.8 kmh 29.75 in1007.5 mb - 0.00 in0.0 mm 0.00 in0.0 mm
06:50 AM 44.7°F7.1°C 34.8°F1.6°C 68% 1.2 mph SSW1.9 kmh SSW 8.1 mph13.0 kmh 29.75 in1007.5 mb - 0.00 in0.0 mm 0.00 in0.0 mm
07:00 AM 44.9°F7.2°C 34.6°F1.4°C 67% 5.8 mph S9.3 kmh S 10.4 mph16.7 kmh 29.76 in1007.8 mb - 0.00 in0.0 mm 0.00 in0.0 mm
07:10 AM 44.8°F7.1°C 34.1°F1.2°C 66% 1.2 mph SSE1.9 kmh SSE 8.1 mph13.0 kmh 29.75 in1007.5 mb - 0.00 in0.0 mm 0.00 in0.0 mm
07:20 AM 44.6°F7.0°C 33.9°F1.1°C 66% 1.2 mph SSE1.9 kmh SSE 5.8 mph9.3 kmh 29.76 in1007.8 mb - 0.00 in0.0 mm 0.00 in0.0 mm
07:30 AM 44.6°F7.0°C 33.9°F1.1°C 66% 5.8 mph SSE9.3 kmh SSE 8.1 mph13.0 kmh 29.75 in1007.5 mb - 0.00 in0.0 mm 0.00 in0.0 mm
07:40 AM 44.7°F7.1°C 34.0°F1.1°C 66% 2.3 mph SSE3.7 kmh SSE 9.2 mph14.8 kmh 29.75 in1007.5 mb - 0.00 in0.0 mm 0.00 in0.0 mm
07:50 AM 44.4°F6.9°C 34.5°F1.4°C 68% 3.5 mph SSE5.6 kmh SSE 4.6 mph7.4 kmh 29.75 in1007.5 mb - 0.00 in0.0 mm 0.00 in0.0 mm
08:00 AM 44.1°F6.7°C 35.0°F1.7°C 70% 1.2 mph S1.9 kmh S 5.8 mph9.3 kmh 29.75 in1007.5 mb - 0.00 in0.0 mm 0.00 in0.0 mm
08:10 AM 44.2°F6.8°C 35.8°F2.1°C 72% 1.2 mph S1.9 kmh S 2.3 mph3.7 kmh 29.75 in1007.5 mb - 0.00 in0.0 mm 0.00 in0.0 mm
08:20 AM 44.4°F6.9°C 35.9°F2.2°C 72% 2.3 mph S3.7 kmh S 3.5 mph5.6 kmh 29.75 in1007.5 mb - 0.00 in0.0 mm 0.00 in0.0 mm
08:30 AM 44.5°F6.9°C 36.4°F2.4°C 73% Calm Calm 2.3 mph3.7 kmh 29.75 in1007.5 mb - 0.00 in0.0 mm 0.00 in0.0 mm
08:40 AM 44.5°F6.9°C 36.4°F2.4°C 73% 1.2 mph SSE1.9 kmh SSE 5.8 mph9.3 kmh 29.74 in1007.1 mb - 0.00 in0.0 mm 0.00 in0.0 mm
08:50 AM 45.0°F7.2°C 36.5°F2.5°C 72% 1.2 mph S1.9 kmh S 4.6 mph7.4 kmh 29.75 in1007.5 mb - 0.00 in0.0 mm 0.00 in0.0 mm
09:00 AM 45.4°F7.4°C 36.9°F2.7°C 72% 1.2 mph SSE1.9 kmh SSE 4.6 mph7.4 kmh 29.75 in1007.5 mb - 0.00 in0.0 mm 0.00 in0.0 mm
09:10 AM 45.6°F7.6°C 36.7°F2.6°C 71% 1.2 mph SSE1.9 kmh SSE 2.3 mph3.7 kmh 29.75 in1007.5 mb - 0.00 in0.0 mm 0.00 in0.0 mm
09:20 AM 45.8°F7.7°C 37.3°F2.9°C 72% 1.2 mph SSE1.9 kmh SSE 3.5 mph5.6 kmh 29.75 in1007.5 mb - 0.00 in0.0 mm 0.00 in0.0 mm
09:30 AM 46.6°F8.1°C 38.1°F3.4°C 72% 1.2 mph SSE1.9 kmh SSE 3.5 mph5.6 kmh 29.74 in1007.1 mb - 0.00 in0.0 mm 0.00 in0.0 mm
09:40 AM 47.9°F8.8°C 38.6°F3.7°C 70% 1.2 mph S1.9 kmh S 4.6 mph7.4 kmh 29.74 in1007.1 mb - 0.00 in0.0 mm 0.00 in0.0 mm
09:50 AM 48.4°F9.1°C 39.4°F4.1°C 71% Calm Calm 5.8 mph9.3 kmh 29.74 in1007.1 mb - 0.00 in0.0 mm 0.00 in0.0 mm
10:00 AM 48.9°F9.4°C 39.9°F4.4°C 71% 3.5 mph S5.6 kmh S 3.5 mph5.6 kmh 29.74 in1007.1 mb - 0.00 in0.0 mm 0.00 in0.0 mm
10:10 AM 50.1°F10.1°C 40.0°F4.4°C 68% 4.6 mph SSE7.4 kmh SSE 6.9 mph11.1 kmh 29.74 in1007.1 mb - 0.00 in0.0 mm 0.00 in0.0 mm
10:20 AM 51.2°F10.7°C 40.2°F4.6°C 66% 5.8 mph SE9.3 kmh SE 10.4 mph16.7 kmh 29.73 in1006.8 mb - 0.00 in0.0 mm 0.00 in0.0 mm
10:30 AM 52.4°F11.3°C 38.9°F3.8°C 60% 4.6 mph S7.4 kmh S 15.0 mph24.1 kmh 29.73 in1006.8 mb - 0.00 in0.0 mm 0.00 in0.0 mm
10:40 AM 52.7°F11.5°C 38.3°F3.5°C 58% 6.9 mph SSE11.1 kmh SSE 16.1 mph25.9 kmh 29.73 in1006.8 mb - 0.00 in0.0 mm 0.00 in0.0 mm
10:50 AM 52.8°F11.6°C 37.1°F2.8°C 55% 12.7 mph SSE20.4 kmh SSE 15.0 mph24.1 kmh 29.73 in1006.8 mb - 0.00 in0.0 mm 0.00 in0.0 mm
11:00 AM 53.0°F11.7°C 37.3°F2.9°C 55% 11.5 mph S18.5 kmh S 21.9 mph35.2 kmh 29.73 in1006.8 mb - 0.00 in0.0 mm 0.00 in0.0 mm
11:10 AM 54.3°F12.4°C 38.0°F3.3°C 54% 6.9 mph SSE11.1 kmh SSE 11.5 mph18.5 kmh 29.72 in1006.4 mb - 0.00 in0.0 mm 0.00 in0.0 mm
11:20 AM 54.9°F12.7°C 37.1°F2.8°C 51% 8.1 mph SE13.0 kmh SE 12.7 mph20.4 kmh 29.72 in1006.4 mb - 0.00 in0.0 mm 0.00 in0.0 mm
11:30 AM 55.4°F13.0°C 37.6°F3.1°C 51% 3.5 mph SE5.6 kmh SE 11.5 mph18.5 kmh 29.72 in1006.4 mb - 0.00 in0.0 mm 0.00 in0.0 mm
11:40 AM 55.9°F13.3°C 36.5°F2.5°C 48% 10.4 mph SE16.7 kmh SE 18.4 mph29.6 kmh 29.71 in1006.1 mb - 0.00 in0.0 mm 0.00 in0.0 mm
11:50 AM 56.3°F13.5°C 36.3°F2.4°C 47% 13.8 mph SE22.2 kmh SE 25.3 mph40.7 kmh 29.71 in1006.1 mb - 0.00 in0.0 mm 0.00 in0.0 mm
12:00 PM 57.4°F14.1°C 36.2°F2.3°C 45% 11.5 mph S18.5 kmh S 16.1 mph25.9 kmh 29.71 in1006.1 mb - 0.00 in0.0 mm 0.00 in0.0 mm
12:10 PM 57.6°F14.2°C 33.4°F0.8°C 40% 13.8 mph SSE22.2 kmh SSE 23.0 mph37.0 kmh 29.69 in1005.4 mb - 0.00 in0.0 mm 0.00 in0.0 mm
12:20 PM 57.7°F14.3°C 30.9°F-0.6°C 36% 12.7 mph S20.4 kmh S 19.6 mph31.5 kmh 29.69 in1005.4 mb - 0.00 in0.0 mm 0.00 in0.0 mm
12:30 PM 57.9°F14.4°C 29.7°F-1.3°C 34% 16.1 mph S25.9 kmh S 21.9 mph35.2 kmh 29.68 in1005.1 mb - 0.00 in0.0 mm 0.00 in0.0 mm
12:40 PM 58.1°F14.5°C 30.6°F-0.8°C 35% 17.3 mph S27.8 kmh S 26.5 mph42.6 kmh 29.68 in1005.1 mb - 0.00 in0.0 mm 0.00 in0.0 mm
12:50 PM 56.7°F13.7°C 31.4°F-0.3°C 38% 10.4 mph S16.7 kmh S 21.9 mph35.2 kmh 29.67 in1004.7 mb - 0.00 in0.0 mm 0.00 in0.0 mm
01:00 PM 56.8°F13.8°C 32.0°F0.0°C 39% 8.1 mph S13.0 kmh S 11.5 mph18.5 kmh 29.67 in1004.7 mb - 0.00 in0.0 mm 0.00 in0.0 mm
01:10 PM 57.4°F14.1°C 33.3°F0.7°C 40% 10.4 mph SE16.7 kmh SE 24.2 mph38.9 kmh 29.67 in1004.7 mb - 0.00 in0.0 mm 0.00 in0.0 mm
01:20 PM 57.4°F14.1°C 33.3°F0.7°C 40% 10.4 mph SE16.7 kmh SE 18.4 mph29.6 kmh 29.66 in1004.4 mb - 0.00 in0.0 mm 0.00 in0.0 mm
01:30 PM 57.4°F14.1°C 32.0°F0.0°C 38% 13.8 mph SSE22.2 kmh SSE 26.5 mph42.6 kmh 29.66 in1004.4 mb - 0.00 in0.0 mm 0.00 in0.0 mm
01:40 PM 56.8°F13.8°C 33.9°F1.1°C 42% 10.4 mph SE16.7 kmh SE 13.8 mph22.2 kmh 29.65 in1004.1 mb - 0.00 in0.0 mm 0.00 in0.0 mm
01:50 PM 56.8°F13.8°C 35.1°F1.7°C 44% 4.6 mph SSE7.4 kmh SSE 13.8 mph22.2 kmh 29.64 in1003.7 mb - 0.00 in0.0 mm 0.00 in0.0 mm
02:00 PM 56.4°F13.6°C 37.0°F2.8°C 48% 12.7 mph SSE20.4 kmh SSE 18.4 mph29.6 kmh 29.64 in1003.7 mb - 0.00 in0.0 mm 0.00 in0.0 mm
02:10 PM 56.1°F13.4°C 38.2°F3.4°C 51% 10.4 mph SE16.7 kmh SE 19.6 mph31.5 kmh 29.63 in1003.4 mb - 0.00 in0.0 mm 0.00 in0.0 mm
02:20 PM 55.4°F13.0°C 39.5°F4.2°C 55% 11.5 mph SE18.5 kmh SE 17.3 mph27.8 kmh 29.63 in1003.4 mb - 0.00 in0.0 mm 0.00 in0.0 mm
02:30 PM 55.6°F13.1°C 39.3°F4.1°C 54% 15.0 mph SE24.1 kmh SE 26.5 mph42.6 kmh 29.62 in1003.0 mb - 0.00 in0.0 mm 0.00 in0.0 mm
02:40 PM 56.6°F13.7°C 39.2°F4.0°C 52% 13.8 mph SE22.2 kmh SE 34.5 mph55.5 kmh 29.61 in1002.7 mb - 0.00 in0.0 mm 0.00 in0.0 mm
02:50 PM 58.2°F14.6°C 38.0°F3.3°C 47% 17.3 mph SE27.8 kmh SE 21.9 mph35.2 kmh 29.61 in1002.7 mb - 0.00 in0.0 mm 0.00 in0.0 mm
03:00 PM 57.7°F14.3°C 38.1°F3.4°C 48% 10.4 mph SSE16.7 kmh SSE 13.8 mph22.2 kmh 29.60 in1002.4 mb - 0.00 in0.0 mm 0.00 in0.0 mm
03:10 PM 58.6°F14.8°C 37.8°F3.2°C 46% 13.8 mph SE22.2 kmh SE 26.5 mph42.6 kmh 29.60 in1002.4 mb - 0.00 in0.0 mm 0.00 in0.0 mm
03:20 PM 58.0°F14.4°C 38.9°F3.8°C 49% 11.5 mph SSE18.5 kmh SSE 26.5 mph42.6 kmh 29.59 in1002.0 mb - 0.00 in0.0 mm 0.00 in0.0 mm
03:30 PM 57.8°F14.3°C 38.8°F3.8°C 49% 16.1 mph SE25.9 kmh SE 25.3 mph40.7 kmh 29.58 in1001.7 mb - 0.00 in0.0 mm 0.00 in0.0 mm
03:40 PM 58.6°F14.8°C 39.0°F3.9°C 48% 16.1 mph SSE25.9 kmh SSE 23.0 mph37.0 kmh 29.59 in1002.0 mb - 0.00 in0.0 mm 0.00 in0.0 mm
03:50 PM 57.1°F13.9°C 39.2°F4.0°C 51% 13.8 mph SSE22.2 kmh SSE 19.6 mph31.5 kmh 29.58 in1001.7 mb - 0.00 in0.0 mm 0.00 in0.0 mm
04:00 PM 56.7°F13.7°C 39.3°F4.1°C 52% 17.3 mph SE27.8 kmh SE 28.8 mph46.3 kmh 29.58 in1001.7 mb - 0.00 in0.0 mm 0.00 in0.0 mm
04:10 PM 58.7°F14.8°C 35.6°F2.0°C 42% 17.3 mph S27.8 kmh S 34.5 mph55.5 kmh 29.58 in1001.7 mb - 0.00 in0.0 mm 0.00 in0.0 mm
04:20 PM 57.7°F14.3°C 35.9°F2.2°C 44% 16.1 mph SSE25.9 kmh SSE 21.9 mph35.2 kmh 29.58 in1001.7 mb - 0.00 in0.0 mm 0.00 in0.0 mm
04:30 PM 58.7°F14.8°C 35.7°F2.1°C 42% 15.0 mph SSE24.1 kmh SSE 25.3 mph40.7 kmh 29.57 in1001.4 mb - 0.00 in0.0 mm 0.00 in0.0 mm
04:40 PM 58.8°F14.9°C 35.7°F2.1°C 42% 12.7 mph SSE20.4 kmh SSE 20.7 mph33.3 kmh 29.57 in1001.4 mb - 0.00 in0.0 mm 0.00 in0.0 mm
04:50 PM 59.0°F15.0°C 32.1°F0.1°C 36% 17.3 mph SSE27.8 kmh SSE 34.5 mph55.5 kmh 29.57 in1001.4 mb - 0.00 in0.0 mm 0.00 in0.0 mm
05:00 PM 58.6°F14.8°C 30.3°F-0.9°C 34% 15.0 mph S24.1 kmh S 26.5 mph42.6 kmh 29.57 in1001.4 mb - 0.00 in0.0 mm 0.00 in0.0 mm
05:10 PM 58.2°F14.6°C 30.6°F-0.8°C 35% 19.6 mph SSE31.5 kmh SSE 26.5 mph42.6 kmh 29.57 in1001.4 mb - 0.00 in0.0 mm 0.00 in0.0 mm
05:20 PM 57.9°F14.4°C 30.4°F-0.9°C 35% 15.0 mph S24.1 kmh S 20.7 mph33.3 kmh 29.57 in1001.4 mb - 0.01 in0.3 mm 0.01 in0.3 mm
05:30 PM 57.5°F14.2°C 30.7°F-0.7°C 36% 11.5 mph S18.5 kmh S 21.9 mph35.2 kmh 29.58 in1001.7 mb - 0.00 in0.0 mm 0.01 in0.3 mm
05:40 PM 57.6°F14.2°C 29.4°F-1.4°C 34% 16.1 mph S25.9 kmh S 28.8 mph46.3 kmh 29.58 in1001.7 mb - 0.00 in0.0 mm 0.01 in0.3 mm
05:50 PM 57.5°F14.2°C 29.3°F-1.5°C 34% 11.5 mph S18.5 kmh S 16.1 mph25.9 kmh 29.58 in1001.7 mb - 0.00 in0.0 mm 0.01 in0.3 mm
06:00 PM 57.4°F14.1°C 29.2°F-1.6°C 34% 11.5 mph SSE18.5 kmh SSE 34.5 mph55.5 kmh 29.58 in1001.7 mb - 0.00 in0.0 mm 0.01 in0.3 mm
06:10 PM 57.3°F14.1°C 29.9°F-1.2°C 35% 11.5 mph S18.5 kmh S 19.6 mph31.5 kmh 29.58 in1001.7 mb - 0.00 in0.0 mm 0.01 in0.3 mm
06:20 PM 56.6°F13.7°C 31.3°F-0.4°C 38% 15.0 mph SSE24.1 kmh SSE 26.5 mph42.6 kmh 29.58 in1001.7 mb - 0.00 in0.0 mm 0.01 in0.3 mm
06:30 PM 56.6°F13.7°C 31.3°F-0.4°C 38% 9.2 mph S14.8 kmh S 19.6 mph31.5 kmh 29.58 in1001.7 mb - 0.00 in0.0 mm 0.01 in0.3 mm
06:40 PM 56.5°F13.6°C 31.2°F-0.4°C 38% 13.8 mph S22.2 kmh S 19.6 mph31.5 kmh 29.58 in1001.7 mb - 0.00 in0.0 mm 0.01 in0.3 mm
06:50 PM 56.1°F13.4°C 31.5°F-0.3°C 39% 13.8 mph S22.2 kmh S 20.7 mph33.3 kmh 29.58 in1001.7 mb - 0.00 in0.0 mm 0.01 in0.3 mm
07:00 PM 55.9°F13.3°C 31.2°F-0.4°C 39% 13.8 mph SSE22.2 kmh SSE 23.0 mph37.0 kmh 29.59 in1002.0 mb - 0.00 in0.0 mm 0.01 in0.3 mm
07:10 PM 55.5°F13.1°C 31.6°F-0.2°C 40% 11.5 mph SSE18.5 kmh SSE 24.2 mph38.9 kmh 29.59 in1002.0 mb - 0.00 in0.0 mm 0.01 in0.3 mm
07:20 PM 55.4°F13.0°C 30.8°F-0.7°C 39% 18.4 mph SSE29.6 kmh SSE 23.0 mph37.0 kmh 29.59 in1002.0 mb - 0.00 in0.0 mm 0.01 in0.3 mm
07:30 PM 55.4°F13.0°C 30.2°F-1.0°C 38% 16.1 mph S25.9 kmh S 26.5 mph42.6 kmh 29.59 in1002.0 mb - 0.00 in0.0 mm 0.01 in0.3 mm
07:40 PM 55.0°F12.8°C 29.8°F-1.2°C 38% 13.8 mph SSE22.2 kmh SSE 25.3 mph40.7 kmh 29.59 in1002.0 mb - 0.00 in0.0 mm 0.01 in0.3 mm
07:50 PM 54.8°F12.7°C 29.0°F-1.7°C 37% 11.5 mph S18.5 kmh S 19.6 mph31.5 kmh 29.60 in1002.4 mb - 0.00 in0.0 mm 0.01 in0.3 mm
08:00 PM 54.6°F12.6°C 28.8°F-1.8°C 37% 11.5 mph SSE18.5 kmh SSE 13.8 mph22.2 kmh 29.60 in1002.4 mb - 0.00 in0.0 mm 0.01 in0.3 mm
08:10 PM 54.3°F12.4°C 28.6°F-1.9°C 37% 11.5 mph SSE18.5 kmh SSE 19.6 mph31.5 kmh 29.60 in1002.4 mb - 0.00 in0.0 mm 0.01 in0.3 mm
08:20 PM 54.2°F12.3°C 28.4°F-2.0°C 37% 12.7 mph SSE20.4 kmh SSE 19.6 mph31.5 kmh 29.60 in1002.4 mb - 0.00 in0.0 mm 0.01 in0.3 mm
08:30 PM 54.0°F12.2°C 28.3°F-2.1°C 37% 10.4 mph S16.7 kmh S 31.1 mph50.1 kmh 29.61 in1002.7 mb - 0.00 in0.0 mm 0.01 in0.3 mm
08:40 PM 54.2°F12.3°C 27.8°F-2.3°C 36% 12.7 mph S20.4 kmh S 26.5 mph42.6 kmh 29.61 in1002.7 mb - 0.00 in0.0 mm 0.01 in0.3 mm
08:50 PM 54.1°F12.3°C 28.4°F-2.0°C 37% 19.6 mph S31.5 kmh S 28.8 mph46.3 kmh 29.61 in1002.7 mb - 0.00 in0.0 mm 0.01 in0.3 mm
09:00 PM 54.0°F12.2°C 28.3°F-2.1°C 37% 11.5 mph S18.5 kmh S 21.9 mph35.2 kmh 29.62 in1003.0 mb - 0.00 in0.0 mm 0.01 in0.3 mm
09:10 PM 53.9°F12.2°C 28.2°F-2.1°C 37% 12.7 mph S20.4 kmh S 19.6 mph31.5 kmh 29.62 in1003.0 mb - 0.00 in0.0 mm 0.01 in0.3 mm
09:20 PM 53.7°F12.1°C 28.0°F-2.2°C 37% 10.4 mph S16.7 kmh S 17.3 mph27.8 kmh 29.63 in1003.4 mb - 0.00 in0.0 mm 0.01 in0.3 mm
09:30 PM 53.5°F11.9°C 28.5°F-1.9°C 38% 13.8 mph S22.2 kmh S 19.6 mph31.5 kmh 29.63 in1003.4 mb - 0.00 in0.0 mm 0.01 in0.3 mm
09:40 PM 53.2°F11.8°C 28.2°F-2.1°C 38% 13.8 mph S22.2 kmh S 19.6 mph31.5 kmh 29.64 in1003.7 mb - 0.00 in0.0 mm 0.01 in0.3 mm
09:50 PM 53.0°F11.7°C 28.0°F-2.2°C 38% 11.5 mph S18.5 kmh S 19.6 mph31.5 kmh 29.64 in1003.7 mb - 0.00 in0.0 mm 0.01 in0.3 mm
10:00 PM 52.8°F11.6°C 28.5°F-1.9°C 39% 15.0 mph S24.1 kmh S 20.7 mph33.3 kmh 29.65 in1004.1 mb - 0.00 in0.0 mm 0.01 in0.3 mm
10:10 PM 52.6°F11.4°C 28.3°F-2.1°C 39% 11.5 mph S18.5 kmh S 18.4 mph29.6 kmh 29.65 in1004.1 mb - 0.00 in0.0 mm 0.01 in0.3 mm
10:20 PM 52.5°F11.4°C 28.2°F-2.1°C 39% 11.5 mph S18.5 kmh S 15.0 mph24.1 kmh 29.66 in1004.4 mb - 0.00 in0.0 mm 0.01 in0.3 mm
10:30 PM 51.9°F11.1°C 29.5°F-1.4°C 42% 6.9 mph SSW11.1 kmh SSW 11.5 mph18.5 kmh 29.67 in1004.7 mb - 0.00 in0.0 mm 0.01 in0.3 mm
10:40 PM 51.5°F10.8°C 27.3°F-2.6°C 39% 9.2 mph SSW14.8 kmh SSW 16.1 mph25.9 kmh 29.67 in1004.7 mb - 0.00 in0.0 mm 0.01 in0.3 mm
10:50 PM 51.5°F10.8°C 26.7°F-2.9°C 38% 8.1 mph SW13.0 kmh SW 16.1 mph25.9 kmh 29.67 in1004.7 mb - 0.00 in0.0 mm 0.01 in0.3 mm
11:00 PM 51.3°F10.7°C 24.5°F-4.2°C 35% 9.2 mph SW14.8 kmh SW 21.9 mph35.2 kmh 29.68 in1005.1 mb - 0.00 in0.0 mm 0.01 in0.3 mm
11:10 PM 49.4°F9.7°C 29.5°F-1.4°C 46% 9.2 mph SW14.8 kmh SW 19.6 mph31.5 kmh 29.69 in1005.4 mb - 0.00 in0.0 mm 0.01 in0.3 mm
11:20 PM 47.1°F8.4°C 28.9°F-1.7°C 49% 5.8 mph W9.3 kmh W 11.5 mph18.5 kmh 29.71 in1006.1 mb - 0.00 in0.0 mm 0.01 in0.3 mm
11:30 PM 41.7°F5.4°C 28.8°F-1.8°C 60% 5.8 mph WNW9.3 kmh WNW 9.2 mph14.8 kmh 29.72 in1006.4 mb - 0.00 in0.0 mm 0.01 in0.3 mm
11:40 PM 40.1°F4.5°C 28.9°F-1.7°C 64% 5.8 mph WNW9.3 kmh WNW 10.4 mph16.7 kmh 29.72 in1006.4 mb - 0.00 in0.0 mm 0.01 in0.3 mm
11:50 PM 39.3°F4.1°C 28.9°F-1.7°C 66% 15.0 mph W24.1 kmh W 21.9 mph35.2 kmh 29.74 in1007.1 mb - 0.00 in0.0 mm 0.01 in0.3 mm